Latest Weather Observations for Maatsuyker Island

IDT60801

Issued at 12:31 pm EST Monday 6 July 2015 (issued every 30 minutes, with the page automatically refreshed every 10 minutes)

About weather observations | Map of weather stations | Latest weather observations for TAS | Other Formats
Station Details ID: 094041 Name: MAATSUYKER ISLAND LIGHTHOUSE Lat: -43.66 Lon: 146.27 Height: 146.5 m
Data from the previous 72 hours. | See also: Recent months at Maatsuyker Island
Date/Time
EST
Temp
°C
App
Temp
°C
Dew
Point
Rel
Hum
%
Delta-T
°C
Wind Press
QNH
hPa
Press
MSL
hPa
Rain
since 9 am
mm
Dir
 
Spd
km/h
Gust
km/h
Spd
kts
Gust
kts
06/12:30pm 7.0 3.6 -0.5 59 2.9 NNW 7 13 4 7 1017.2 - 0.0
06/12:00pm 6.5 3.0 1.3 69 2.1 NNW 9 15 5 8 1017.2 1017.4 0.0
06/11:30am 6.6 2.5 2.2 73 1.8 NW 13 28 7 15 1017.1 - 0.0
06/11:00am 6.4 3.0 2.0 73 1.8 NW 9 17 5 9 1017.6 - 0.0
06/10:30am 6.3 2.8 1.3 70 2.0 NW 9 17 5 9 1017.4 - 0.0
06/10:00am 5.4 1.9 1.1 74 1.7 NW 9 15 5 8 1017.4 - 0.0
06/09:30am 5.6 2.2 -0.7 64 2.4 NW 7 13 4 7 1016.8 - 0.0
06/09:00am 5.4 2.1 -1.0 63 2.4 SE 6 11 3 6 1016.6 1016.8 0.0
06/08:30am 5.7 1.6 0.0 67 2.2 NNW 11 20 6 11 1016.4 - 0.0
06/08:00am 5.1 1.4 0.2 70 1.9 NW 9 17 5 9 1016.4 - 0.0
06/07:30am 5.1 1.6 1.3 76 1.5 NNW 9 22 5 12 1016.1 - 0.0
06/07:00am 5.1 1.9 1.0 75 1.6 N 7 13 4 7 1016.1 - 0.0
06/06:30am 5.4 2.1 0.2 69 2.0 NNW 7 13 4 7 1015.8 - 0.0
06/05:30am 5.6 2.2 -0.7 64 2.4 N 7 13 4 7 1015.5 - 0.0
06/05:00am 5.9 2.5 -0.3 64 2.4 N 7 11 4 6 1015.3 - 0.0
06/04:30am 5.9 2.7 0.6 69 2.1 N 7 15 4 8 1015.2 - 0.0
06/04:00am 5.9 2.2 0.0 66 2.3 N 9 15 5 8 1015.1 - 0.0
06/03:30am 5.8 2.5 -0.2 65 2.3 N 7 13 4 7 1015.1 - 0.0
06/03:00am 6.0 2.7 0.1 66 2.3 NNW 7 13 4 7 1015.1 1015.4 0.0
06/02:30am 5.9 2.8 0.3 67 2.2 N 6 9 3 5 1015.1 - 0.0
06/02:00am 6.1 3.0 -0.1 64 2.4 NNW 6 11 3 6 1014.9 - 0.0
06/01:30am 6.1 2.4 0.2 66 2.3 NNW 9 17 5 9 1014.8 - 0.0
06/01:00am 6.1 2.8 -0.1 64 2.4 NNW 7 11 4 6 1014.9 - 0.0
06/12:30am 6.2 2.9 0.3 66 2.3 N 7 13 4 7 1015.0 - 0.0
06/12:00am 5.9 2.7 0.6 69 2.1 N 7 9 4 5 1015.1 1015.4 0.0
 
Date/Time
EST
Temp
°C
App
Temp
°C
Dew
Point
Rel
Hum
%
Delta-T
°C
Wind Press
QNH
hPa
Press
MSL
hPa
Rain
since 9 am
mm
Dir
 
Spd
km/h
Gust
km/h
Spd
kts
Gust
kts
05/11:30pm 6.4 3.3 0.0 63 2.5 N 6 11 3 6 1015.1 - 0.0
05/11:00pm 6.4 3.3 0.0 63 2.5 N 6 11 3 6 1015.1 - 0.0
05/10:30pm 6.4 3.4 0.6 66 2.3 N 6 9 3 5 1015.1 - 0.0
05/10:00pm 6.5 3.5 0.7 66 2.3 N 6 11 3 6 1015.1 - 0.0
05/09:30pm 6.6 3.6 1.1 68 2.2 N 6 13 3 7 1015.0 - 0.0
05/09:00pm 6.5 3.4 1.6 71 2.0 NNE 7 19 4 10 1015.1 1015.4 0.0
05/08:30pm 6.7 3.2 1.5 69 2.1 NE 9 15 5 8 1015.1 - 0.0
05/08:00pm 6.6 3.6 2.0 72 1.9 N 7 11 4 6 1015.0 - 0.0
05/07:30pm 6.6 3.9 2.5 75 1.7 NNE 6 9 3 5 1014.9 - 0.0
05/07:00pm 6.5 3.6 2.7 77 1.6 NE 7 20 4 11 1014.7 - 0.0
05/06:30pm 6.4 3.2 3.3 80 1.3 NE 9 19 5 10 1014.5 - 0.0
05/06:00pm 6.3 3.3 4.2 86 0.9 NNE 9 19 5 10 1014.4 1014.6 0.0
05/05:30pm 6.8 0.6 4.3 84 1.1 SSE 26 35 14 19 1014.3 - 0.0
05/05:00pm 7.1 1.7 2.3 71 2.0 SSE 20 24 11 13 1014.2 - 0.0
05/04:30pm 7.2 1.4 2.4 71 2.0 SSE 22 28 12 15 1014.0 - 0.0
05/04:00pm 7.4 1.8 3.4 76 1.7 S 22 32 12 17 1013.8 - 0.0
05/03:30pm 7.5 1.4 2.8 72 2.0 S 24 30 13 16 1013.7 - 0.0
05/03:00pm 8.3 3.1 3.7 73 2.0 SSW 20 26 11 14 1013.7 1013.9 0.0
05/02:30pm 8.9 4.0 3.9 71 2.2 S 19 24 10 13 1013.5 - 0.0
05/02:00pm 8.6 4.3 3.5 70 2.2 S 15 22 8 12 1013.6 - 0.0
05/01:30pm 8.0 3.1 3.9 75 1.8 S 19 22 10 12 1013.7 - 0.0
05/01:00pm 8.0 1.8 4.1 76 1.7 S 26 33 14 18 1013.7 - 0.0
05/12:30pm 8.6 2.8 4.3 74 1.9 S 24 35 13 19 1013.7 - 0.0
05/12:00pm 8.6 3.4 0.4 56 3.3 W 17 22 9 12 1014.0 1014.2 0.0
05/11:30am 8.5 3.5 1.5 61 2.9 SSW 17 24 9 13 1014.0 - 0.0
05/11:00am 8.2 2.7 2.0 65 2.6 SW 20 28 11 15 1014.3 - 0.0
05/10:30am 7.9 2.1 2.4 68 2.3 SW 22 30 12 16 1014.2 - 0.0
05/10:00am 8.0 1.3 3.6 74 1.9 SSW 28 33 15 18 1014.1 - 0.0
05/09:30am 8.2 3.3 1.7 63 2.7 W 17 26 9 14 1014.1 - 0.0
05/09:00am 8.0 2.7 2.0 66 2.5 W 19 26 10 14 1014.1 1014.3 0.2
05/08:30am 7.9 2.1 2.2 67 2.4 W 22 30 12 16 1014.1 - 0.2
05/08:00am 7.9 1.7 2.4 68 2.3 WSW 24 30 13 16 1014.0 - 0.2
05/07:30am 8.2 1.7 0.2 57 3.2 W 24 33 13 18 1013.8 - 0.2
05/07:00am 8.1 0.7 -0.6 54 3.4 W 28 41 15 22 1013.5 - 0.2
05/06:30am 8.2 0.6 0.8 59 3.0 W 30 41 16 22 1013.3 - 0.2
05/06:00am 8.4 1.4 1.9 63 2.7 W 28 44 15 24 1013.2 1013.4 0.2
05/05:30am 8.5 -1.5 1.2 60 3.0 WNW 43 50 23 27 1012.8 - 0.2
05/05:00am 8.6 -0.1 2.2 64 2.7 WNW 37 46 20 25 1012.9 - 0.2
05/04:30am 8.4 -0.3 2.2 65 2.6 WNW 37 44 20 24 1012.9 - 0.2
05/04:00am 8.5 -0.8 3.2 69 2.3 WNW 41 50 22 27 1012.5 - 0.2
05/03:30am 8.5 -1.3 3.4 70 2.2 WNW 44 52 24 28 1012.6 - 0.2
05/03:00am 8.5 -1.1 3.2 69 2.3 WNW 43 50 23 27 1012.8 1013.0 0.2
05/02:30am 8.2 -1.4 4.6 78 1.6 WNW 44 54 24 29 1012.9 - 0.2
05/02:00am 8.8 -2.0 4.0 72 2.1 WNW 50 57 27 31 1012.9 - 0.2
05/01:30am 9.0 -3.0 3.5 68 2.4 NW 56 65 30 35 1012.4 - 0.2
05/01:00am 8.9 -3.5 2.8 65 2.6 NW 57 69 31 37 1012.5 - 0.2
05/12:30am 8.9 -3.3 2.8 65 2.6 NW 56 63 30 34 1012.5 - 0.2
05/12:00am 8.7 -3.5 2.6 65 2.6 NW 56 65 30 35 1012.7 1012.9 0.2
 
Date/Time
EST
Temp
°C
App
Temp
°C
Dew
Point
Rel
Hum
%
Delta-T
°C
Wind Press
QNH
hPa
Press
MSL
hPa
Rain
since 9 am
mm
Dir
 
Spd
km/h
Gust
km/h
Spd
kts
Gust
kts
04/11:30pm 8.8 -4.0 2.2 63 2.8 NW 59 69 32 37 1012.5 - 0.2
04/11:00pm 8.8 -3.4 2.7 65 2.6 NW 56 61 30 33 1012.6 - 0.2
04/10:30pm 8.6 -3.2 2.5 65 2.6 NW 54 63 29 34 1012.8 - 0.2
04/10:00pm 8.6 -3.4 1.6 61 2.9 WNW 54 61 29 33 1013.1 - 0.2
04/09:30pm 8.7 -5.4 1.7 61 2.9 NW 65 74 35 40 1012.7 - 0.2
04/09:00pm 8.5 -4.2 3.2 69 2.3 WNW 59 69 32 37 1012.7 1012.9 0.2
04/08:30pm 8.7 -4.4 3.1 68 2.4 NW 61 72 33 39 1012.7 - 0.0
04/08:00pm 8.9 -5.3 3.4 68 2.4 NW 67 74 36 40 1012.5 - 0.0
04/07:30pm 8.6 -4.4 3.3 69 2.3 NW 61 70 33 38 1012.4 - 0.0
04/07:00pm 8.2 -2.6 4.1 75 1.8 NW 50 59 27 32 1012.6 - 0.0
04/06:30pm 7.6 -5.2 4.4 80 1.4 WNW 61 69 33 37 1012.5 - 0.0
04/06:00pm 8.3 -2.0 2.6 67 2.4 WNW 46 57 25 31 1012.7 1012.9 0.0
04/05:30pm 8.3 -2.7 2.9 69 2.3 WNW 50 65 27 35 1012.4 - 0.0
04/05:00pm 8.4 -3.7 3.3 70 2.2 WNW 56 65 30 35 1012.2 - 0.0
04/04:43pm 8.4 -3.8 3.6 72 2.1 WNW 57 76 31 41 1012.3 - 0.0
04/04:30pm 8.6 -5.9 1.6 61 2.9 NW 67 78 36 42 1011.7 - 0.0
04/04:00pm 8.5 -5.3 3.2 69 2.3 WNW 65 72 35 39 1011.6 - 0.0
04/03:30pm 8.5 -5.7 2.9 68 2.4 WNW 67 76 36 41 1011.4 - 0.0
04/03:00pm 7.5 -4.4 4.3 80 1.4 W 56 - 30 - - 1011.2 0.0
04/02:57pm 8.1 -5.0 5.0 81 1.4 WNW 63 83 34 45 1010.9 - 0.0
04/02:30pm 8.4 -6.1 3.6 72 2.1 WNW 69 80 37 43 1011.1 - 0.0
04/02:00pm 8.8 -4.9 3.8 71 2.2 WNW 65 72 35 39 1011.0 - 0.0
04/01:30pm 9.1 -5.4 3.4 67 2.5 WNW 69 74 37 40 1010.8 - 0.0
04/01:00pm 9.2 -5.2 4.0 70 2.3 WNW 69 82 37 44 1011.2 - 0.0
04/12:30pm 9.0 -6.0 3.8 70 2.3 WNW 72 82 39 44 1010.4 - 0.0
04/12:00pm 8.8 -6.2 4.0 72 2.1 WNW 72 80 39 43 1010.6 1010.8 0.0
04/11:30am 9.5 -5.3 4.9 73 2.1 NW 72 80 39 43 1010.9 - 0.0
04/11:00am 8.7 -5.6 4.4 74 1.9 WNW 69 76 37 41 1010.8 - 0.0
04/10:45am 9.2 -6.7 3.2 66 2.6 NW 76 95 41 51 1010.3 - 0.0
04/10:30am 9.3 -7.3 3.3 66 2.6 NW 80 93 43 50 1010.5 - 0.0
04/10:00am 9.4 -7.4 2.4 61 3.0 NW 80 91 43 49 1009.8 - 0.0
04/09:30am 9.0 -8.0 1.3 58 3.2 NW 80 95 43 51 1009.9 - 0.0
04/09:00am 8.9 -5.1 2.3 63 2.8 W 65 89 35 48 1009.5 1009.7 3.8
04/08:30am 9.1 -5.2 4.6 73 2.0 WNW 69 82 37 44 1009.6 - 3.8
04/08:00am 8.9 -5.2 3.6 69 2.3 WNW 67 80 36 43 1009.7 - 3.8
04/07:30am 9.2 -5.2 5.2 76 1.8 WNW 70 85 38 46 1009.6 - 3.8
04/07:00am 9.5 -6.5 4.9 73 2.1 WNW 78 89 42 48 1008.6 - 3.6
04/06:30am 9.5 -4.5 7.0 84 1.2 WNW 70 80 38 43 1008.8 - 3.6
04/06:00am 9.9 -3.2 6.7 80 1.5 WNW 65 89 35 48 1007.8 1008.0 3.6
04/05:30am 9.8 -5.3 7.3 84 1.2 WNW 76 83 41 45 1008.0 - 3.6
04/05:00am 10.2 -5.5 7.9 86 1.1 NW 80 91 43 49 1007.5 - 3.6
04/04:30am 10.0 -6.1 7.7 86 1.1 NW 82 91 44 49 1007.1 - 3.6
04/04:00am 10.0 -5.2 8.4 90 0.8 NW 78 89 42 48 1007.2 - 3.6
04/03:30am 10.6 -6.3 9.8 95 0.4 NW 89 106 48 57 1006.0 - 3.6
04/03:07am 10.5 -4.6 10.1 97 0.2 NW 80 102 43 55 1005.8 - 3.4
04/03:00am 10.5 -3.9 9.9 96 0.3 NNW 76 89 41 48 1005.8 1006.0 3.4
04/02:30am 10.4 -5.5 9.2 92 0.6 NW 83 95 45 51 1006.0 - 3.0
04/02:11am 10.6 -4.0 9.2 91 0.7 NNW 76 95 41 51 1005.9 - 3.0
04/02:00am 10.5 -4.5 9.3 92 0.6 NNW 78 91 42 49 1006.5 - 3.0
04/01:38am 10.3 -3.6 8.9 91 0.7 NNW 72 95 39 51 1006.6 - 3.0
04/01:30am 10.4 -3.6 8.6 89 0.9 NNW 72 87 39 47 1007.1 - 3.0
04/01:00am 10.2 -3.9 8.2 87 1.0 NNW 72 87 39 47 1007.5 - 2.8
04/12:33am 10.2 -4.3 8.2 87 1.0 NNW 74 93 40 50 1007.8 - 2.8
04/12:30am 10.0 -4.9 7.9 87 1.0 NNW 76 93 41 50 1007.7 - 2.8
04/12:12am 10.1 -4.8 8.1 87 1.0 NNW 76 95 41 51 1007.9 - 2.8
04/12:00am 10.1 -5.1 8.3 88 0.9 NNW 78 95 42 51 1007.7 1007.9 2.8
 
Date/Time
EST
Temp
°C
App
Temp
°C
Dew
Point
Rel
Hum
%
Delta-T
°C
Wind Press
QNH
hPa
Press
MSL
hPa
Rain
since 9 am
mm
Dir
 
Spd
km/h
Gust
km/h
Spd
kts
Gust
kts
03/11:41pm 9.7 -5.9 8.3 91 0.7 NNW 80 98 43 53 1007.8 - 2.8
03/11:30pm 9.8 -6.2 8.2 90 0.8 NNW 82 96 44 52 1008.0 - 2.6
03/11:12pm 9.7 -4.3 8.7 93 0.5 NNW 72 95 39 51 1008.2 - 2.4
03/11:00pm 9.5 -5.7 8.3 92 0.6 NNW 78 93 42 50 1008.4 - 2.2
03/10:37pm 9.9 -6.3 7.2 83 1.3 NNW 82 102 44 55 1007.9 - 2.2
03/10:30pm 9.8 -6.4 7.5 85 1.1 NNW 82 96 44 52 1008.4 - 2.2
03/10:02pm 9.5 -6.0 7.2 85 1.1 NNW 78 96 42 52 1009.0 - 2.2
03/10:00pm 9.6 -6.1 7.7 88 0.9 NNW 80 96 43 52 1008.8 - 2.2
03/09:30pm 9.8 -7.3 5.9 77 1.8 NNW 85 104 46 56 1008.5 - 2.2
03/09:00pm 9.7 -5.0 5.6 75 1.9 NNW 72 91 39 49 1009.6 1009.8 2.2
03/08:30pm 9.1 -6.5 6.5 84 1.2 NNW 78 100 42 54 1010.3 - 2.2
03/08:00pm 8.8 -8.1 6.7 87 1.0 NNW 85 109 46 59 1010.3 - 2.0
03/07:30pm 9.0 -6.9 6.9 87 1.0 NW 80 106 43 57 1011.0 - 2.0
03/07:20pm 9.0 -7.5 6.0 81 1.4 NNW 82 100 44 54 1010.8 - 2.0
03/07:00pm 9.1 -8.5 6.8 85 1.1 NW 89 102 48 55 1010.9 - 2.0
03/06:32pm 8.3 -7.8 6.1 86 1.0 NNW 80 98 43 53 1011.5 - 1.6
03/06:30pm 8.1 -8.6 6.1 87 0.9 NNW 83 100 45 54 1011.6 - 1.6
03/06:00pm 8.7 -8.0 5.2 79 1.6 NNW 82 104 44 56 1011.7 1011.9 1.4
03/05:55pm 8.7 -8.4 5.6 81 1.4 NNW 85 104 46 56 1011.4 - 1.4
03/05:43pm 8.7 -10.1 6.8 88 0.9 NW 95 106 51 57 1011.4 - 1.4
03/05:30pm 8.8 -5.5 5.5 80 1.5 NNW 70 96 38 52 1011.9 - 1.4
03/05:00pm 8.4 -5.9 5.5 82 1.3 NNW 70 89 38 48 1012.4 - 1.4
03/04:33pm 8.2 -6.9 5.6 84 1.2 NNW 74 93 40 50 1013.0 - 1.4
03/04:30pm 7.9 -7.4 6.2 89 0.8 NNW 76 93 41 50 1012.9 - 1.4
03/04:06pm 8.0 -8.5 5.8 86 1.0 NNW 82 100 44 54 1013.0 - 1.2
03/04:02pm 8.1 -10.0 6.6 90 0.7 NW 91 100 49 54 1012.8 - 1.2
03/04:00pm 8.8 -5.2 6.2 84 1.2 NNW 69 102 37 55 1013.4 - 1.2
03/03:53pm 8.6 -3.9 5.8 82 1.3 NNW 61 83 33 45 1013.5 - 1.2
03/03:46pm 8.2 -2.9 6.5 89 0.8 NNW 54 67 29 36 1014.0 - 1.2
03/03:30pm 8.1 -7.3 5.7 85 1.1 NNW 76 95 41 51 1013.5 - 1.2
03/03:20pm 8.4 -5.8 5.3 81 1.4 NNW 69 91 37 49 1013.4 - 1.2
03/03:00pm 8.8 -3.2 4.0 72 2.1 WNW 56 83 30 45 1013.6 1013.8 1.2
03/02:30pm 8.4 -4.8 6.2 86 1.0 NNW 65 83 35 45 1013.7 - 1.2
03/02:07pm 7.8 -7.9 6.1 89 0.8 NW 78 96 42 52 1014.4 - 1.2
03/02:04pm 7.9 -9.6 5.9 87 0.9 NW 87 96 47 52 1014.1 - 1.2
03/02:02pm 8.7 -4.8 4.9 77 1.7 NNW 65 95 35 51 1014.6 - 1.2
03/02:00pm 8.7 -4.5 4.7 76 1.8 NNW 63 78 34 42 1014.7 - 1.2
03/01:34pm 8.4 -4.9 5.8 84 1.2 NNW 65 83 35 45 1015.0 - 1.2
03/01:30pm 8.2 -5.2 5.3 82 1.3 NNW 65 80 35 43 1015.3 - 1.2
03/01:00pm 7.7 -6.5 6.2 90 0.7 NW 70 85 38 46 1015.6 - 1.2
03/12:33pm 7.8 -6.9 5.6 86 1.0 NW 72 91 39 49 1016.7 - 1.2

Other Formats:

Comma delimited format used in spreadsheet applications
http://www.bom.gov.au/fwo/IDT60801/IDT60801.94962.axf

JavaScript Object Notation format (JSON) in row-major order
http://www.bom.gov.au/fwo/IDT60801/IDT60801.94962.json